Half Moon Bay, California
Current Conditions -  °F | °C
As of 4:15 PM on Wednesday 22 Oct 2014 (Local Time) from KHAF Reporting Station
Haze Haze  
Wind Chill: 66°   Ceiling: Unl
Heat Index: 66°   Visibility: 5mi
Dew Point: 57°   Wind: 13mph
Humidity: 73%   Direction: 310°NW
Pressure: 30.03"   Gusts: NA
Location:  37.46°N, 122.42°W
Report Text: KHAF 222315Z AUTO 31011KT 5SM HZ CLR 19/14 A3003 RMK AO2
Loading
Personal Weather Stations






























Interactive Weather Map
Tropical Storm Tracking
New forecast layout! Learn more

10-Day Weather Forecast

Advertisements
Track Severe Weather on mobile